createdAt,value
2023-02-16T00:01:46.528Z,39.50
2023-02-16T00:04:19.831Z,36.00
2023-02-16T00:06:48.086Z,56.77
2023-02-16T00:09:16.806Z,53.13
2023-02-16T00:12:02.510Z,37.30
2023-02-16T00:14:30.719Z,41.50
2023-02-16T00:17:00.742Z,71.10
2023-02-16T00:19:30.543Z,40.67
2023-02-16T00:22:00.409Z,34.67
2023-02-16T00:24:30.550Z,152.20
2023-02-16T00:26:59.420Z,100.00
2023-02-16T00:29:30.020Z,47.47
2023-02-16T00:32:01.145Z,40.63
2023-02-16T00:34:33.224Z,40.53
2023-02-16T00:37:02.924Z,43.80
2023-02-16T00:39:31.658Z,35.87
2023-02-16T00:42:04.030Z,37.13
2023-02-16T00:44:35.115Z,38.03
2023-02-16T00:47:11.689Z,52.43
2023-02-16T00:49:39.876Z,41.73
2023-02-16T00:52:34.297Z,70.80
2023-02-16T00:55:03.845Z,36.03
2023-02-16T00:57:35.124Z,42.07
2023-02-16T01:00:06.453Z,60.87
2023-02-16T01:02:36.179Z,50.93
2023-02-16T01:05:04.619Z,31.67
2023-02-16T01:07:50.432Z,33.23
2023-02-16T01:10:37.078Z,31.93
2023-02-16T01:13:05.415Z,51.00
2023-02-16T01:15:35.807Z,43.70
2023-02-16T01:18:05.720Z,44.90
2023-02-16T01:20:36.254Z,42.30
2023-02-16T01:23:05.092Z,39.10
2023-02-16T01:25:33.890Z,32.13
2023-02-16T01:28:02.101Z,33.30
2023-02-16T01:30:30.599Z,38.70
2023-02-16T01:32:58.756Z,39.40
2023-02-16T01:35:34.323Z,43.97
2023-02-16T01:38:02.625Z,36.20
2023-02-16T01:40:39.392Z,42.97
2023-02-16T01:43:20.272Z,44.60
2023-02-16T01:45:55.658Z,38.07
2023-02-16T01:48:27.132Z,36.73
2023-02-16T01:51:04.871Z,35.63
2023-02-16T01:53:40.063Z,35.60
2023-02-16T01:56:17.182Z,33.00
2023-02-16T01:58:48.702Z,43.27
2023-02-16T02:01:40.783Z,38.30
2023-02-16T02:04:34.372Z,32.40
2023-02-16T02:07:03.912Z,32.83
2023-02-16T02:09:39.255Z,36.10
2023-02-16T02:12:19.724Z,30.13
2023-02-16T02:14:49.367Z,31.43
2023-02-16T02:17:22.190Z,29.10
2023-02-16T02:20:00.780Z,31.83
2023-02-16T02:23:26.712Z,30.33
2023-02-16T02:26:43.088Z,28.83
2023-02-16T02:29:39.203Z,28.30
2023-02-16T02:32:17.676Z,33.73
2023-02-16T02:35:02.838Z,36.43
2023-02-16T02:37:45.298Z,41.73
2023-02-16T02:40:24.226Z,34.40
2023-02-16T02:43:04.305Z,33.77
2023-02-16T02:45:37.496Z,32.23
2023-02-16T02:48:05.887Z,29.30
2023-02-16T02:50:40.318Z,33.90
2023-02-16T02:53:14.008Z,31.73
2023-02-16T02:56:04.294Z,29.57
2023-02-16T02:59:06.732Z,30.80
2023-02-16T03:01:37.963Z,27.30
2023-02-16T03:04:18.038Z,34.37
2023-02-16T03:06:49.648Z,28.67
2023-02-16T03:09:19.088Z,28.60
2023-02-16T03:12:07.734Z,31.10
2023-02-16T03:14:41.075Z,27.33
2023-02-16T03:17:31.029Z,29.10
2023-02-16T03:20:18.072Z,28.43
2023-02-16T03:23:04.560Z,26.47
2023-02-16T03:25:53.929Z,30.47
2023-02-16T03:28:43.526Z,27.63
2023-02-16T03:31:17.124Z,26.60
2023-02-16T03:33:46.028Z,27.57
2023-02-16T03:36:14.244Z,26.03
2023-02-16T03:38:42.433Z,28.60
2023-02-16T03:41:10.566Z,28.77
2023-02-16T03:43:38.803Z,26.90
2023-02-16T03:46:07.207Z,31.23
2023-02-16T03:48:36.833Z,25.33
2023-02-16T03:51:05.404Z,22.50
2023-02-16T03:53:33.900Z,23.20
2023-02-16T03:56:02.068Z,27.93
2023-02-16T03:58:30.573Z,25.23
2023-02-16T04:00:59.576Z,26.87
2023-02-16T04:03:28.203Z,26.33
2023-02-16T04:05:57.698Z,21.83
2023-02-16T04:08:25.792Z,25.33
2023-02-16T04:10:54.306Z,28.03
2023-02-16T04:13:21.458Z,26.30
2023-02-16T04:15:50.356Z,28.87
2023-02-16T04:18:18.433Z,27.00
2023-02-16T04:20:46.671Z,25.60
2023-02-16T04:23:16.213Z,26.40
2023-02-16T04:25:44.542Z,25.67
2023-02-16T04:28:12.713Z,21.50
2023-02-16T04:30:40.974Z,20.77
2023-02-16T04:33:09.298Z,23.30
2023-02-16T04:35:37.500Z,20.40
2023-02-16T04:38:05.811Z,17.47
2023-02-16T04:40:35.600Z,18.60
2023-02-16T04:43:03.986Z,21.20
2023-02-16T04:45:32.670Z,19.90
2023-02-16T04:48:00.872Z,19.40
2023-02-16T04:50:29.060Z,20.47
2023-02-16T04:52:57.283Z,22.17
2023-02-16T04:55:25.617Z,27.13
2023-02-16T04:57:55.122Z,21.77
2023-02-16T05:00:23.783Z,21.50
2023-02-16T05:02:51.891Z,21.97
2023-02-16T05:05:20.366Z,18.03
2023-02-16T05:07:48.528Z,18.50
2023-02-16T05:10:16.821Z,20.77
2023-02-16T05:13:02.421Z,22.40
2023-02-16T05:15:32.204Z,21.47
2023-02-16T05:18:00.372Z,20.30
2023-02-16T05:20:42.500Z,17.20
2023-02-16T05:23:10.809Z,21.20
2023-02-16T05:25:38.976Z,19.90
2023-02-16T05:28:07.166Z,19.97
2023-02-16T05:30:37.298Z,19.83
2023-02-16T05:33:05.437Z,18.70
2023-02-16T05:35:35.488Z,18.60
2023-02-16T05:38:03.592Z,22.00
2023-02-16T05:40:31.911Z,21.30
2023-02-16T05:43:00.132Z,22.87
2023-02-16T05:45:28.322Z,20.83
2023-02-16T05:47:57.946Z,19.13
2023-02-16T05:50:25.995Z,48.83
2023-02-16T05:52:54.153Z,51.77
2023-02-16T05:55:22.359Z,47.13
2023-02-16T05:57:50.473Z,27.40
2023-02-16T06:00:19.070Z,20.57
2023-02-16T06:02:47.522Z,21.90
2023-02-16T06:05:17.358Z,25.77
2023-02-16T06:07:46.664Z,32.23
2023-02-16T06:10:16.277Z,35.40
2023-02-16T06:12:45.008Z,37.83
2023-02-16T06:15:13.669Z,28.10
2023-02-16T06:17:44.583Z,28.40
2023-02-16T06:20:13.148Z,26.03
2023-02-16T06:22:42.650Z,23.73
2023-02-16T06:25:11.754Z,26.13
2023-02-16T06:27:39.804Z,27.70
2023-02-16T06:30:09.652Z,20.13
2023-02-16T06:32:37.744Z,19.43
2023-02-16T06:35:06.154Z,21.63
2023-02-16T06:37:34.257Z,23.30
2023-02-16T06:40:03.676Z,23.60
2023-02-16T06:42:31.933Z,26.13
2023-02-16T06:45:00.260Z,25.00
2023-02-16T06:47:28.361Z,27.30
2023-02-16T06:49:56.619Z,26.23
2023-02-16T06:52:25.127Z,25.37
2023-02-16T06:54:53.526Z,30.00
2023-02-16T06:57:22.980Z,25.20
2023-02-16T06:59:51.182Z,27.80
2023-02-16T07:02:19.402Z,26.20
2023-02-16T07:04:47.507Z,25.03
2023-02-16T07:07:15.718Z,27.77
2023-02-16T07:09:44.639Z,27.77
2023-02-16T07:12:12.966Z,26.83
2023-02-16T07:14:44.089Z,25.03
2023-02-16T07:17:12.435Z,25.50
2023-02-16T07:19:40.530Z,24.90
2023-02-16T07:22:08.891Z,26.53
2023-02-16T07:24:37.285Z,28.80
2023-02-16T07:27:05.578Z,25.50
2023-02-16T07:29:33.666Z,21.83
2023-02-16T07:32:04.851Z,25.23
2023-02-16T07:34:33.258Z,25.23
2023-02-16T07:37:01.481Z,26.80
2023-02-16T07:39:31.040Z,23.80
2023-02-16T07:41:59.537Z,19.17
2023-02-16T07:44:28.036Z,24.13
2023-02-16T07:46:56.265Z,26.73
2023-02-16T07:49:25.765Z,29.47
2023-02-16T07:51:53.883Z,30.50
2023-02-16T07:54:22.026Z,36.67
2023-02-16T07:56:50.072Z,43.10
2023-02-16T07:59:18.200Z,48.40
2023-02-16T08:01:46.640Z,55.20
2023-02-16T08:04:14.831Z,64.73
2023-02-16T08:06:45.973Z,59.87
2023-02-16T08:09:14.079Z,54.53
2023-02-16T08:11:42.621Z,48.10
2023-02-16T08:14:11.990Z,50.67
2023-02-16T08:16:40.161Z,49.83
2023-02-16T08:19:11.150Z,50.77
2023-02-16T08:21:39.248Z,51.30
2023-02-16T08:24:09.737Z,52.63
2023-02-16T08:26:40.841Z,55.93
2023-02-16T08:29:12.715Z,51.60
2023-02-16T08:31:41.800Z,58.23
2023-02-16T08:34:11.294Z,59.07
2023-02-16T08:36:40.109Z,58.77
2023-02-16T08:39:16.931Z,61.03
2023-02-16T08:41:47.076Z,55.90
2023-02-16T08:44:16.353Z,49.70
2023-02-16T08:46:46.567Z,46.80
2023-02-16T08:49:17.001Z,55.70
2023-02-16T08:51:48.510Z,46.47
2023-02-16T08:54:20.238Z,53.17
2023-02-16T08:56:49.729Z,53.23
2023-02-16T08:59:20.356Z,47.53
2023-02-16T09:01:49.134Z,47.50
2023-02-16T09:04:19.858Z,52.60
2023-02-16T09:06:49.445Z,40.73
2023-02-16T09:09:19.495Z,50.77
2023-02-16T09:11:48.033Z,42.60
2023-02-16T09:14:16.545Z,44.13
2023-02-16T09:16:46.423Z,44.20
2023-02-16T09:19:16.184Z,40.50
2023-02-16T09:21:45.188Z,41.87
2023-02-16T09:24:13.567Z,42.33
2023-02-16T09:26:44.725Z,43.63
2023-02-16T09:29:14.194Z,41.53
2023-02-16T09:31:44.450Z,41.57
2023-02-16T09:34:17.756Z,33.00
2023-02-16T09:36:47.297Z,26.30
2023-02-16T09:39:16.657Z,22.97
2023-02-16T09:42:25.912Z,21.60
2023-02-16T09:45:03.700Z,19.67
2023-02-16T09:47:36.025Z,19.57
2023-02-16T09:50:07.198Z,21.23
2023-02-16T09:52:37.992Z,25.33
2023-02-16T09:55:09.261Z,22.10
2023-02-16T09:57:47.479Z,19.80
2023-02-16T10:00:29.407Z,19.23
2023-02-16T10:03:08.101Z,17.40
2023-02-16T10:05:46.008Z,17.53
2023-02-16T10:08:16.922Z,22.30
2023-02-16T10:10:49.748Z,18.57
2023-02-16T10:13:26.094Z,17.83
2023-02-16T10:15:57.771Z,23.43
2023-02-16T10:18:33.408Z,17.43
2023-02-16T10:21:05.818Z,15.33
2023-02-16T10:23:45.395Z,16.13
2023-02-16T10:26:21.783Z,15.40
2023-02-16T10:28:54.950Z,23.43
2023-02-16T10:31:30.406Z,17.93
2023-02-16T10:34:23.339Z,15.40
2023-02-16T10:37:09.510Z,15.23
2023-02-16T10:39:44.493Z,13.97
2023-02-16T10:42:21.709Z,12.77
2023-02-16T10:44:59.524Z,15.77
2023-02-16T10:47:34.112Z,20.80
2023-02-16T10:50:02.708Z,18.87
2023-02-16T10:52:35.356Z,15.77
2023-02-16T10:55:04.085Z,12.70
2023-02-16T10:57:33.644Z,15.27
2023-02-16T11:00:08.311Z,14.47
2023-02-16T11:02:40.015Z,19.23
2023-02-16T11:05:30.417Z,15.93
2023-02-16T11:08:01.725Z,17.20
2023-02-16T11:10:40.084Z,18.10
2023-02-16T11:13:17.973Z,19.73
2023-02-16T11:15:54.545Z,14.57
2023-02-16T11:18:33.181Z,16.60
2023-02-16T11:21:03.551Z,16.10
2023-02-16T11:23:33.787Z,22.73
2023-02-16T11:26:06.080Z,16.33
2023-02-16T11:28:36.029Z,18.43
2023-02-16T11:31:19.724Z,16.33
2023-02-16T11:34:01.096Z,16.50
2023-02-16T11:36:34.522Z,14.23
2023-02-16T11:39:06.958Z,16.90
2023-02-16T11:41:36.381Z,16.00
2023-02-16T11:44:05.610Z,15.70
2023-02-16T11:46:42.453Z,16.60
2023-02-16T11:49:32.842Z,15.97
2023-02-16T11:52:01.997Z,16.67
2023-02-16T11:54:30.173Z,20.03
2023-02-16T11:57:09.350Z,15.17
2023-02-16T11:59:38.862Z,16.83
2023-02-16T12:02:42.533Z,16.37
2023-02-16T12:05:27.117Z,14.13
2023-02-16T12:08:13.237Z,12.93
2023-02-16T12:10:54.076Z,13.13
2023-02-16T12:13:30.422Z,15.30
2023-02-16T12:16:13.012Z,18.90
2023-02-16T12:18:48.357Z,13.00
2023-02-16T12:21:25.676Z,14.90
2023-02-16T12:24:02.182Z,13.23
2023-02-16T12:26:44.076Z,13.20
2023-02-16T12:29:25.447Z,13.87
2023-02-16T12:32:05.643Z,11.93
2023-02-16T12:34:48.881Z,16.53
2023-02-16T12:37:25.558Z,13.30
2023-02-16T12:40:03.922Z,13.10
2023-02-16T12:42:51.070Z,13.43
2023-02-16T12:45:22.942Z,12.43
2023-02-16T12:47:56.885Z,13.90
2023-02-16T12:50:29.094Z,20.37
2023-02-16T12:53:03.205Z,16.40
2023-02-16T12:55:38.534Z,12.70
2023-02-16T12:58:16.901Z,21.43
2023-02-16T13:00:49.567Z,13.17
2023-02-16T13:03:29.914Z,12.33
2023-02-16T13:06:15.937Z,13.93
2023-02-16T13:08:49.358Z,11.90
2023-02-16T13:11:23.292Z,13.23
2023-02-16T13:13:53.866Z,14.03
2023-02-16T13:16:30.874Z,12.60
2023-02-16T13:18:59.822Z,11.03
2023-02-16T13:21:54.682Z,13.50
2023-02-16T13:24:36.245Z,15.27
2023-02-16T13:27:18.480Z,15.23
2023-02-16T13:30:00.544Z,12.97
2023-02-16T13:32:50.683Z,11.73
2023-02-16T13:35:43.003Z,13.10
2023-02-16T13:38:31.062Z,14.30
2023-02-16T13:41:20.846Z,11.37
2023-02-16T13:43:55.678Z,16.40
2023-02-16T13:46:30.590Z,15.57
2023-02-16T13:48:59.812Z,11.50
2023-02-16T13:51:31.047Z,12.00
2023-02-16T13:54:03.378Z,19.93
2023-02-16T13:56:37.988Z,12.37
2023-02-16T13:59:58.373Z,14.00
2023-02-16T14:02:55.898Z,14.03
2023-02-16T14:05:30.433Z,13.83
2023-02-16T14:08:20.921Z,11.80
2023-02-16T14:11:08.911Z,14.20
2023-02-16T14:13:49.970Z,12.60
2023-02-16T14:16:34.802Z,14.40
2023-02-16T14:19:06.329Z,21.17
2023-02-16T14:21:39.713Z,15.80
2023-02-16T14:24:14.327Z,13.70
2023-02-16T14:27:00.018Z,15.50
2023-02-16T14:29:31.470Z,15.27
2023-02-16T14:32:05.746Z,17.00
2023-02-16T14:34:40.730Z,13.80
2023-02-16T14:37:44.389Z,14.33
2023-02-16T14:40:19.604Z,15.10
2023-02-16T14:42:56.814Z,18.63
2023-02-16T14:46:02.806Z,17.33
2023-02-16T14:48:58.370Z,17.50
2023-02-16T14:51:50.873Z,14.83
2023-02-16T14:54:48.154Z,14.80
2023-02-16T14:57:19.325Z,13.53
2023-02-16T14:59:53.953Z,12.80
2023-02-16T15:02:28.280Z,13.43
2023-02-16T15:04:56.888Z,14.03
2023-02-16T15:07:28.013Z,12.40
2023-02-16T15:09:58.667Z,14.23
2023-02-16T15:12:41.221Z,13.37
2023-02-16T15:15:20.381Z,11.10
2023-02-16T15:17:49.613Z,15.53
2023-02-16T15:20:24.970Z,11.30
2023-02-16T15:22:56.181Z,19.27
2023-02-16T15:25:27.755Z,14.93
2023-02-16T15:28:01.915Z,17.03
2023-02-16T15:30:33.966Z,13.50
2023-02-16T15:33:04.069Z,12.30
2023-02-16T15:35:36.871Z,13.10
2023-02-16T15:38:09.072Z,11.63
2023-02-16T15:40:37.957Z,9.80
2023-02-16T15:43:26.841Z,11.10
2023-02-16T15:45:56.381Z,10.90
2023-02-16T15:48:30.454Z,14.60
2023-02-16T15:51:06.968Z,9.17
2023-02-16T15:53:40.133Z,9.50
2023-02-16T15:56:26.595Z,12.50
2023-02-16T15:58:56.007Z,11.10
2023-02-16T16:01:32.948Z,9.03
2023-02-16T16:04:04.437Z,11.70
2023-02-16T16:06:37.735Z,11.93
2023-02-16T16:09:08.534Z,9.67
2023-02-16T16:11:38.302Z,9.40
2023-02-16T16:14:07.531Z,9.67
2023-02-16T16:16:37.804Z,11.87
2023-02-16T16:19:16.466Z,11.40
2023-02-16T16:21:51.335Z,13.67
2023-02-16T16:24:35.043Z,12.33
2023-02-16T16:27:06.479Z,14.90
2023-02-16T16:29:38.278Z,10.70
2023-02-16T16:32:08.846Z,11.90
2023-02-16T16:34:38.960Z,11.70
2023-02-16T16:37:17.229Z,13.67
2023-02-16T16:39:58.182Z,14.77
2023-02-16T16:42:26.870Z,10.70
2023-02-16T16:45:00.908Z,10.13
2023-02-16T16:47:35.567Z,8.70
2023-02-16T16:50:09.277Z,11.83
2023-02-16T16:52:41.542Z,11.50
2023-02-16T16:55:32.211Z,14.10
2023-02-16T16:58:01.998Z,9.17
2023-02-16T17:00:34.481Z,10.27
2023-02-16T17:03:05.146Z,12.80
2023-02-16T17:05:33.425Z,12.47
2023-02-16T17:08:01.703Z,10.77
2023-02-16T17:10:30.505Z,10.10
2023-02-16T17:13:00.724Z,12.97
2023-02-16T17:15:33.114Z,18.53
2023-02-16T17:18:03.459Z,15.40
2023-02-16T17:20:32.035Z,14.07
2023-02-16T17:23:04.511Z,12.87
2023-02-16T17:25:34.530Z,15.87
2023-02-16T17:28:02.911Z,19.80
2023-02-16T17:30:31.182Z,19.83
2023-02-16T17:32:59.510Z,18.43
2023-02-16T17:35:29.459Z,15.23
2023-02-16T17:37:58.004Z,14.60
2023-02-16T17:40:27.244Z,14.57
2023-02-16T17:42:55.324Z,14.30
2023-02-16T17:45:23.508Z,15.90
2023-02-16T17:47:53.190Z,17.33
2023-02-16T17:50:22.089Z,14.00
2023-02-16T17:52:57.142Z,14.70
2023-02-16T17:55:25.638Z,7.53
2023-02-16T17:57:55.720Z,11.27
2023-02-16T18:00:24.014Z,16.03
2023-02-16T18:02:52.160Z,12.43
2023-02-16T18:05:20.258Z,13.47
2023-02-16T18:07:48.461Z,14.23
2023-02-16T18:10:30.983Z,14.67
2023-02-16T18:12:59.136Z,12.70
2023-02-16T18:15:27.432Z,13.47
2023-02-16T18:17:55.613Z,14.17
2023-02-16T18:20:24.051Z,14.67
2023-02-16T18:22:52.164Z,10.67
2023-02-16T18:25:21.709Z,11.93
2023-02-16T18:27:49.936Z,11.43
2023-02-16T18:30:18.928Z,11.63
2023-02-16T18:32:47.293Z,13.13
2023-02-16T18:35:17.125Z,11.63
2023-02-16T18:37:45.782Z,13.43
2023-02-16T18:40:17.822Z,11.27
2023-02-16T18:42:48.269Z,14.80
2023-02-16T18:45:16.442Z,13.37
2023-02-16T18:47:45.215Z,17.40
2023-02-16T18:50:13.655Z,13.97
2023-02-16T18:52:43.428Z,11.17
2023-02-16T18:55:11.830Z,10.10
2023-02-16T18:57:40.313Z,8.80
2023-02-16T19:00:14.697Z,10.63
2023-02-16T19:02:43.254Z,13.80
2023-02-16T19:05:12.225Z,11.20
2023-02-16T19:07:40.437Z,11.87
2023-02-16T19:10:10.413Z,9.50
2023-02-16T19:12:38.920Z,9.40
2023-02-16T19:15:09.569Z,10.17
2023-02-16T19:17:38.813Z,11.50
2023-02-16T19:20:09.802Z,7.70
2023-02-16T19:22:38.098Z,7.90
2023-02-16T19:25:07.637Z,8.07
2023-02-16T19:27:36.250Z,7.73
2023-02-16T19:30:04.743Z,7.60
2023-02-16T19:32:34.470Z,7.27
2023-02-16T19:35:03.735Z,11.93
2023-02-16T19:37:32.100Z,6.63
2023-02-16T19:40:00.297Z,9.30
2023-02-16T19:42:28.538Z,6.17
2023-02-16T19:44:56.837Z,9.53
2023-02-16T19:47:25.006Z,10.80
2023-02-16T19:49:54.499Z,8.37
2023-02-16T19:52:22.571Z,7.70
2023-02-16T19:54:50.932Z,8.70
2023-02-16T19:57:19.261Z,8.80
2023-02-16T19:59:47.666Z,8.80
2023-02-16T20:02:15.911Z,7.73
2023-02-16T20:04:44.268Z,6.03
2023-02-16T20:07:13.806Z,5.53
2023-02-16T20:09:42.014Z,8.67
2023-02-16T20:12:10.113Z,4.70
2023-02-16T20:14:38.225Z,8.97
2023-02-16T20:17:06.390Z,9.77
2023-02-16T20:19:34.670Z,6.73
2023-02-16T20:22:03.246Z,8.47
2023-02-16T20:24:32.736Z,5.77
2023-02-16T20:27:04.335Z,5.90
2023-02-16T20:29:33.261Z,6.90
2023-02-16T20:32:01.829Z,8.33
2023-02-16T20:34:30.217Z,9.10
2023-02-16T20:36:58.444Z,11.63
2023-02-16T20:39:26.716Z,10.40
2023-02-16T20:41:58.220Z,18.20
2023-02-16T20:44:26.466Z,11.00
2023-02-16T20:46:54.658Z,13.00
2023-02-16T20:49:22.996Z,10.63
2023-02-16T20:51:51.178Z,11.70
2023-02-16T20:54:19.330Z,11.70
2023-02-16T20:56:47.532Z,12.63
2023-02-16T20:59:16.980Z,11.77
2023-02-16T21:01:47.545Z,8.87
2023-02-16T21:04:18.070Z,8.97
2023-02-16T21:06:46.348Z,7.67
2023-02-16T21:09:15.880Z,8.77
2023-02-16T21:11:44.687Z,8.27
2023-02-16T21:14:13.899Z,10.67
2023-02-16T21:16:43.637Z,10.97
2023-02-16T21:19:22.438Z,11.33
2023-02-16T21:21:52.029Z,9.60
2023-02-16T21:24:20.275Z,8.00
2023-02-16T21:26:48.442Z,8.20
2023-02-16T21:29:16.571Z,8.00
2023-02-16T21:31:46.292Z,12.03
2023-02-16T21:34:14.668Z,6.50
2023-02-16T21:36:42.834Z,8.57
2023-02-16T21:39:11.203Z,8.83
2023-02-16T21:41:38.538Z,7.60
2023-02-16T21:44:08.434Z,6.17
2023-02-16T21:46:38.212Z,6.67
2023-02-16T21:49:08.770Z,19.67
2023-02-16T21:51:39.213Z,5.33
2023-02-16T21:54:08.324Z,5.43
2023-02-16T21:56:39.234Z,6.73
2023-02-16T21:59:09.351Z,10.50
2023-02-16T22:01:39.818Z,8.50
2023-02-16T22:04:11.844Z,6.47
2023-02-16T22:06:42.336Z,5.20
2023-02-16T22:09:13.044Z,6.20
2023-02-16T22:11:41.858Z,5.83
2023-02-16T22:14:10.218Z,9.57
2023-02-16T22:16:39.525Z,6.00
2023-02-16T22:19:11.872Z,6.70
2023-02-16T22:21:43.057Z,6.10
2023-02-16T22:24:13.390Z,7.00
2023-02-16T22:26:41.697Z,7.67
2023-02-16T22:29:10.188Z,6.53
2023-02-16T22:31:38.726Z,7.10
2023-02-16T22:34:09.040Z,8.17
2023-02-16T22:36:38.703Z,6.43
2023-02-16T22:39:07.065Z,7.50
2023-02-16T22:41:35.740Z,6.03
2023-02-16T22:44:04.004Z,9.63
2023-02-16T22:46:32.430Z,7.57
2023-02-16T22:49:01.871Z,7.83
2023-02-16T22:51:31.002Z,12.33
2023-02-16T22:54:01.911Z,6.73
2023-02-16T22:56:31.183Z,7.70
2023-02-16T22:59:00.055Z,5.43
2023-02-16T23:01:30.180Z,6.67
2023-02-16T23:04:00.631Z,4.13
2023-02-16T23:06:31.123Z,9.37
2023-02-16T23:09:02.101Z,6.70
2023-02-16T23:11:30.774Z,6.80
2023-02-16T23:13:59.328Z,5.40
2023-02-16T23:16:28.975Z,3.83
2023-02-16T23:18:57.789Z,7.10
2023-02-16T23:21:27.944Z,5.90
2023-02-16T23:23:56.813Z,5.40
2023-02-16T23:26:28.196Z,6.90
2023-02-16T23:28:59.074Z,9.23
2023-02-16T23:31:27.658Z,6.43
2023-02-16T23:33:57.577Z,7.30
2023-02-16T23:36:25.732Z,11.33
2023-02-16T23:38:54.133Z,4.30
2023-02-16T23:41:22.599Z,7.10
2023-02-16T23:43:52.118Z,9.17
2023-02-16T23:46:20.335Z,6.97
2023-02-16T23:48:48.534Z,6.67
2023-02-16T23:51:16.860Z,5.90
2023-02-16T23:53:45.512Z,6.20
2023-02-16T23:56:15.909Z,7.50
2023-02-16T23:58:46.126Z,7.20
